Aaron, Kentucky
Current Conditions -  °F | °C
As of 8:56 PM on Saturday 24 Jan 2015 (Local Time) from KEKQ Reporting Station
Clear Clear  
Wind Chill: -1°   Ceiling: Unl
Heat Index:   Visibility: 10mi
Dew Point: -1°   Wind: 5mph
Humidity: 85%   Direction: 220°SW
Pressure: 29.91"   Gusts: NA
Location:  36.6815°N, 85.1287°W
Report Text: KEKQ 250256Z AUTO 22004KT 10SM CLR 01/M01 A2991 RMK AO2 50007 T00111011 SLP138
Loading
Personal Weather Stations






























Interactive Weather Map New forecast layout! Learn more

10-Day Weather Forecast

Advertisements
Track Severe Weather on mobile